Time;durP1;ratioP1;P1;durP2;ratioP2;P2;SDS_P1;SDS_P2;PMS_P1;PMS_P2;Temp;Humidity;BMP_temperature;BMP_pressure;BME280_temperature;BME280_humidity;BME280_pressure;Samples;Min_cycle;Max_cycle;Signal;HPM_P1;HPM_P2
2023/10/12 00:01:38;;;;;;;26.75;15.75;;;;;;;16.39;90.75;101148.78;5068119;28;20385;-65
2023/10/12 00:04:11;;;;;;;27.27;15.88;;;;;;;16.38;91.20;101147.94;5067406;28;20029;-66
2023/10/12 00:06:37;;;;;;;30.65;17.00;;;;;;;16.37;91.88;101135.56;5067364;28;20029;-65
2023/10/12 00:09:16;;;;;;;28.13;16.73;;;;;;;16.34;92.29;101159.28;5060088;28;20025;-65
2023/10/12 00:11:54;;;;;;;36.20;17.85;;;;;;;16.33;93.25;101166.50;5058688;28;20063;-65
2023/10/12 00:14:22;;;;;;;32.97;17.20;;;;;;;16.35;93.35;101167.13;5062387;28;20029;-65
2023/10/12 00:16:49;;;;;;;32.28;16.98;;;;;;;16.31;94.33;101171.22;5061325;28;20028;-65
2023/10/12 00:19:14;;;;;;;33.95;18.60;;;;;;;16.30;94.79;101169.56;5061325;28;20486;-65
2023/10/12 00:21:43;;;;;;;31.42;18.05;;;;;;;16.25;95.17;101161.31;5060947;28;20025;-65
2023/10/12 00:24:12;;;;;;;33.53;18.20;;;;;;;16.25;96.25;101172.03;5062207;28;20032;-65
2023/10/12 00:26:38;;;;;;;31.00;18.55;;;;;;;16.23;96.54;101163.38;5056880;28;20040;-65
2023/10/12 00:29:06;;;;;;;36.90;18.52;;;;;;;16.19;97.24;101172.84;5055507;28;20020;-65
2023/10/12 00:31:32;;;;;;;31.80;18.85;;;;;;;16.18;97.62;101176.50;5065408;28;20025;-66
2023/10/12 00:33:57;;;;;;;34.13;18.70;;;;;;;16.15;98.17;101171.56;5063955;28;20089;-66
2023/10/12 00:36:24;;;;;;;31.80;20.42;;;;;;;16.12;98.85;101166.59;5068437;28;20036;-66
2023/10/12 00:38:52;;;;;;;32.10;19.60;;;;;;;16.10;99.16;101177.50;5060941;28;20024;-66
2023/10/12 00:41:17;;;;;;;37.42;19.38;;;;;;;16.05;99.55;101165.75;5064573;28;20060;-65
2023/10/12 00:44:08;;;;;;;38.42;20.63;;;;;;;16.06;100.00;101181.63;5067000;28;20052;-66
2023/10/12 00:46:40;;;;;;;36.55;20.40;;;;;;;16.04;100.00;101199.75;5059710;28;20065;-66
2023/10/12 00:51:48;;;;;;;35.10;21.27;;;;;;;15.99;100.00;101199.50;5055674;28;20101;-66
2023/10/12 00:54:14;;;;;;;39.13;21.52;;;;;;;15.96;100.00;101188.38;5058895;28;20032;-66
2023/10/12 00:56:43;;;;;;;35.65;21.23;;;;;;;15.97;100.00;101206.09;5059264;28;20025;-66
2023/10/12 00:59:11;;;;;;;39.95;22.33;;;;;;;15.90;100.00;101199.84;5067418;28;20456;-66
2023/10/12 01:01:37;;;;;;;39.37;22.63;;;;;;;15.91;100.00;101209.56;5060440;28;20482;-66
2023/10/12 01:04:03;;;;;;;38.03;22.95;;;;;;;15.88;100.00;101207.25;5064490;28;20020;-66
2023/10/12 01:06:28;;;;;;;40.88;23.08;;;;;;;15.84;100.00;101214.84;5067651;28;20032;-66
2023/10/12 01:08:59;;;;;;;39.35;22.85;;;;;;;15.82;100.00;101200.00;5066061;28;20386;-66
2023/10/12 01:11:27;;;;;;;43.50;24.20;;;;;;;15.79;100.00;101203.91;5060865;28;20468;-66
2023/10/12 01:14:09;;;;;;;43.65;22.80;;;;;;;15.78;100.00;101199.56;5055621;28;20036;-66
2023/10/12 01:19:22;;;;;;;41.30;22.95;;;;;;;15.77;100.00;101197.91;5065525;28;20028;-67
2023/10/12 01:22:11;;;;;;;41.58;23.23;;;;;;;15.77;100.00;101205.94;5059345;28;20032;-66
2023/10/12 01:24:43;;;;;;;38.22;22.60;;;;;;;15.76;100.00;101221.19;5053816;28;20024;-67
2023/10/12 01:27:12;;;;;;;47.55;24.20;;;;;;;15.74;100.00;101217.88;5058201;28;20029;-66
2023/10/12 01:29:37;;;;;;;39.20;23.27;;;;;;;15.72;100.00;101201.19;5066482;28;20131;-66
2023/10/12 01:34:38;;;;;;;38.58;23.15;;;;;;;15.68;100.00;101199.94;5065638;28;20071;-67
2023/10/12 01:37:23;;;;;;;41.97;23.50;;;;;;;15.69;100.00;101188.19;5063634;28;20048;-67
2023/10/12 01:39:57;;;;;;;48.53;22.85;;;;;;;15.68;100.00;101167.78;5066140;28;20047;-67
2023/10/12 01:42:49;;;;;;;40.97;22.90;;;;;;;15.68;100.00;101164.28;5060774;28;20028;-67
2023/10/12 01:47:55;;;;;;;43.00;22.33;;;;;;;15.64;100.00;101147.78;5054719;28;20083;-67
2023/10/12 01:50:24;;;;;;;46.22;22.65;;;;;;;15.60;100.00;101141.16;5061781;28;20024;-67
2023/10/12 01:52:52;;;;;;;;;;;;;;;15.61;100.00;101153.56;5064338;28;20031;-67
2023/10/12 01:55:29;;;;;;;42.22;22.95;;;;;;;15.61;100.00;101158.91;5067166;28;19950;-67
2023/10/12 01:57:55;;;;;;;41.47;23.45;;;;;;;15.58;100.00;101145.88;5063767;28;20429;-67
2023/10/12 02:00:25;;;;;;;43.58;23.38;;;;;;;15.54;100.00;101146.44;5061718;28;20029;-67
2023/10/12 02:03:01;;;;;;;40.03;23.42;;;;;;;15.53;100.00;101139.44;5052569;28;20487;-68
2023/10/12 02:05:30;;;;;;;38.33;23.48;;;;;;;15.55;100.00;101153.44;5066361;28;20062;-68
2023/10/12 02:07:56;;;;;;;42.42;23.33;;;;;;;15.49;100.00;101161.25;5056123;28;20060;-67
2023/10/12 02:10:25;;;;;;;40.17;24.02;;;;;;;15.53;100.00;101169.69;5060825;28;20106;-67
2023/10/12 02:12:53;;;;;;;42.63;24.27;;;;;;;15.52;100.00;101172.56;5067457;28;20016;-67
2023/10/12 02:15:20;;;;;;;44.80;25.60;;;;;;;15.51;100.00;101163.72;5060893;28;20361;-67
2023/10/12 02:17:49;;;;;;;42.58;25.00;;;;;;;15.50;100.00;101151.38;5065380;28;20632;-67
2023/10/12 02:20:15;;;;;;;42.92;24.50;;;;;;;15.47;100.00;101133.03;5060551;28;20467;-67
2023/10/12 02:22:40;;;;;;;43.38;25.33;;;;;;;15.49;100.00;101155.88;5061593;28;20020;-68
2023/10/12 02:25:18;;;;;;;44.97;26.92;;;;;;;15.47;100.00;101178.53;5059594;28;20025;-67
2023/10/12 02:27:54;;;;;;;46.53;26.58;;;;;;;15.47;100.00;101175.84;5063596;28;20147;-67
2023/10/12 02:30:24;;;;;;;43.33;26.92;;;;;;;15.47;100.00;101184.69;5064163;28;20047;-67
2023/10/12 02:33:00;;;;;;;49.50;26.55;;;;;;;15.45;100.00;101180.56;5067613;28;20051;-68
2023/10/12 02:35:25;;;;;;;46.63;27.77;;;;;;;15.42;100.00;101170.25;5064856;28;20032;-68
2023/10/12 02:37:50;;;;;;;45.63;27.35;;;;;;;15.44;100.00;101165.53;5059844;28;20021;-68
2023/10/12 02:40:16;;;;;;;47.65;29.13;;;;;;;15.40;100.00;101138.34;5058744;28;20035;-68
2023/10/12 02:42:43;;;;;;;53.58;29.48;;;;;;;15.39;100.00;101135.84;5055281;28;20066;-67
2023/10/12 02:45:16;;;;;;;48.35;29.15;;;;;;;15.38;100.00;101151.09;5059477;28;20081;-67
2023/10/12 02:47:42;;;;;;;52.75;28.63;;;;;;;15.37;100.00;101144.06;5063649;28;20063;-67
2023/10/12 02:52:35;;;;;;;49.60;28.38;;;;;;;15.35;100.00;101142.63;5061502;28;20037;-67
2023/10/12 02:57:54;;;;;;;51.10;30.10;;;;;;;15.32;100.00;101127.75;5063851;28;20036;-67
2023/10/12 03:00:39;;;;;;;50.22;29.67;;;;;;;15.33;100.00;101139.31;5063098;28;20040;-67
2023/10/12 03:03:16;;;;;;;53.55;30.85;;;;;;;15.30;100.00;101121.75;5062484;28;20032;-68
2023/10/12 03:05:48;;;;;;;51.78;29.33;;;;;;;15.28;100.00;101109.59;5067533;28;20024;-68
2023/10/12 03:08:14;;;;;;;52.85;29.08;;;;;;;15.29;100.00;101105.91;5064180;28;20066;-67
2023/10/12 03:10:47;;;;;;;49.95;29.15;;;;;;;15.28;100.00;101106.94;5063673;28;20059;-67
2023/10/12 03:13:24;;;;;;;47.72;29.50;;;;;;;15.27;100.00;101094.56;5064979;28;20028;-68
2023/10/12 03:15:57;;;;;;;49.53;30.02;;;;;;;15.26;100.00;101107.13;5062067;28;20025;-67
2023/10/12 03:18:26;;;;;;;44.75;29.13;;;;;;;15.24;100.00;101113.69;5063776;28;20505;-67
2023/10/12 03:21:02;;;;;;;55.72;32.35;;;;;;;15.22;100.00;101129.94;5066390;28;20034;-68
2023/10/12 03:23:29;;;;;;;52.38;30.42;;;;;;;15.19;100.00;101127.66;5065595;28;20023;-68
2023/10/12 03:25:54;;;;;;;53.60;32.88;;;;;;;15.17;100.00;101140.41;5064671;28;20032;-68
2023/10/12 03:28:53;;;;;;;54.00;31.95;;;;;;;15.13;100.00;101129.28;5059170;28;20029;-67
2023/10/12 03:31:15;;;;;;;50.30;32.22;;;;;;;15.11;100.00;101128.63;5058123;28;20078;-68
2023/10/12 03:33:52;;;;;;;49.30;31.83;;;;;;;15.10;100.00;101158.25;5058667;28;20421;-67
2023/10/12 03:36:22;;;;;;;54.47;32.65;;;;;;;15.09;100.00;101153.94;5059427;28;20070;-68
2023/10/12 03:39:07;;;;;;;51.72;31.98;;;;;;;15.06;100.00;101139.09;5061574;28;20108;-67
2023/10/12 03:44:19;;;;;;;53.22;32.15;;;;;;;15.03;100.00;101139.44;5062423;28;20036;-68
2023/10/12 03:46:57;;;;;;;53.63;31.90;;;;;;;15.02;100.00;101147.66;5061639;28;20385;-68
2023/10/12 03:50:10;;;;;;;50.40;31.92;;;;;;;14.98;100.00;101154.41;5063862;28;20028;-68
2023/10/12 03:52:14;;;;;;;48.65;30.75;;;;;;;14.98;100.00;101155.25;5057780;28;20387;-68
2023/10/12 03:54:55;;;;;;;46.50;30.33;;;;;;;14.98;100.00;101149.06;5063483;28;20041;-68
2023/10/12 03:57:28;;;;;;;52.40;30.67;;;;;;;14.97;100.00;101166.13;5062057;28;20096;-68
2023/10/12 04:05:21;;;;;;;46.60;29.20;;;;;;;14.93;100.00;101175.56;5057060;28;20121;-68
2023/10/12 04:10:41;;;;;;;;;;;;;;;14.91;100.00;101186.47;5064601;28;20032;-67
2023/10/12 04:13:55;;;;;;;47.20;29.00;;;;;;;14.87;100.00;101180.66;5063396;28;19916;-67
2023/10/12 04:16:09;;;;;;;50.20;28.50;;;;;;;14.88;100.00;101182.31;5065663;28;20048;-68
2023/10/12 04:18:42;;;;;;;46.88;28.60;;;;;;;14.86;100.00;101171.00;5068530;28;20766;-68
2023/10/12 04:21:10;;;;;;;44.83;26.52;;;;;;;14.84;100.00;101169.53;5060195;28;20024;-68
2023/10/12 04:28:38;;;;;;;47.10;26.55;;;;;;;14.82;100.00;101160.88;5069389;28;20036;-68
2023/10/12 04:33:51;;;;;;;47.90;26.48;;;;;;;14.79;100.00;101178.13;5062545;28;20110;-68
2023/10/12 04:41:39;;;;;;;42.53;26.45;;;;;;;14.80;100.00;101182.44;5061530;28;20098;-68
2023/10/12 04:44:35;;;;;;;43.95;26.10;;;;;;;14.80;100.00;101187.78;5065986;28;20028;-68
2023/10/12 04:47:11;;;;;;;41.97;26.00;;;;;;;14.73;100.00;101181.53;5068954;28;20043;-68
2023/10/12 04:49:54;;;;;;;42.80;25.67;;;;;;;14.80;100.00;101182.44;5064978;28;20479;-68
2023/10/12 04:52:32;;;;;;;41.17;26.77;;;;;;;14.80;100.00;101195.81;5071326;28;20078;-68
2023/10/12 04:55:20;;;;;;;45.67;26.95;;;;;;;14.82;100.00;101200.97;5061694;28;20032;-68
2023/10/12 04:58:09;;;;;;;41.30;26.13;;;;;;;14.83;100.00;101202.63;5064117;28;20024;-67
2023/10/12 05:00:47;;;;;;;43.20;25.73;;;;;;;14.82;100.00;101196.47;5065967;28;20102;-68
2023/10/12 05:06:09;;;;;;;42.05;25.40;;;;;;;14.84;100.00;101196.25;5060225;28;20051;-67
2023/10/12 05:08:35;;;;;;;44.58;24.70;;;;;;;14.83;100.00;101202.63;5064315;28;20135;-67
2023/10/12 05:11:01;;;;;;;40.08;25.90;;;;;;;14.84;100.00;101221.16;5062701;28;20087;-67
2023/10/12 05:13:27;;;;;;;41.90;25.50;;;;;;;14.82;100.00;101215.16;5060808;28;20497;-67
2023/10/12 05:15:55;;;;;;;39.70;24.23;;;;;;;14.84;100.00;101220.31;5063698;28;20015;-67
2023/10/12 05:18:25;;;;;;;43.33;25.38;;;;;;;14.83;100.00;101224.84;5061827;28;20060;-67
2023/10/12 05:20:51;;;;;;;45.53;25.55;;;;;;;14.83;100.00;101214.16;5060677;28;20078;-67
2023/10/12 05:23:17;;;;;;;47.97;26.65;;;;;;;14.84;100.00;101212.31;5051340;28;20033;-67
2023/10/12 05:28:27;;;;;;;40.13;25.92;;;;;;;14.84;100.00;101214.97;5066460;28;20403;-67
2023/10/12 05:30:59;;;;;;;44.17;26.15;;;;;;;14.82;100.00;101211.66;5060654;28;20090;-68
2023/10/12 05:33:38;;;;;;;39.60;25.75;;;;;;;14.86;100.00;101226.31;5069919;28;20023;-67
2023/10/12 05:36:11;;;;;;;37.80;25.47;;;;;;;14.85;100.00;101220.13;5061192;28;20021;-67
2023/10/12 05:38:49;;;;;;;41.67;25.83;;;;;;;14.87;100.00;101231.47;5068865;28;20299;-67
2023/10/12 05:41:34;;;;;;;44.47;25.65;;;;;;;14.87;100.00;101230.66;5063968;28;20032;-67
2023/10/12 05:44:01;;;;;;;39.17;25.65;;;;;;;14.87;100.00;101238.66;5063850;28;20679;-67
2023/10/12 05:46:32;;;;;;;41.38;25.95;;;;;;;14.88;100.00;101233.13;5066003;28;20529;-67
2023/10/12 05:48:58;;;;;;;41.42;25.15;;;;;;;14.88;100.00;101226.94;5059970;28;20481;-67
2023/10/12 05:51:23;;;;;;;43.05;25.20;;;;;;;14.87;100.00;101241.34;5059571;28;20021;-67
2023/10/12 05:53:56;;;;;;;44.30;24.98;;;;;;;14.88;100.00;101246.50;5069029;28;20032;-67
2023/10/12 05:56:23;;;;;;;40.28;24.67;;;;;;;14.89;100.00;101252.69;5063881;28;20028;-67
2023/10/12 05:58:48;;;;;;;41.10;25.45;;;;;;;14.88;100.00;101253.69;5067698;28;20032;-67
2023/10/12 06:01:30;;;;;;;38.15;24.40;;;;;;;14.86;100.00;101245.03;5063497;28;20101;-67
2023/10/12 06:03:56;;;;;;;39.65;23.92;;;;;;;14.86;100.00;101253.88;5064489;28;20039;-67
2023/10/12 06:06:21;;;;;;;32.72;22.90;;;;;;;14.86;100.00;101253.06;5064990;28;20024;-67
2023/10/12 06:08:47;;;;;;;36.28;22.67;;;;;;;14.86;100.00;101258.41;5056436;28;20036;-67
2023/10/12 06:11:12;;;;;;;44.85;23.58;;;;;;;14.85;100.00;101259.41;5062747;28;20517;-67
2023/10/12 06:13:41;;;;;;;35.30;22.27;;;;;;;14.85;100.00;101254.06;5068451;28;20039;-67
2023/10/12 06:16:14;;;;;;;;;;;;;;;14.88;100.00;101251.03;5062286;28;20025;-67
2023/10/12 06:18:46;;;;;;;33.33;19.95;;;;;;;14.83;100.00;101261.47;5056531;28;19908;-68
2023/10/12 06:21:17;;;;;;;34.45;19.33;;;;;;;14.85;100.00;101270.13;5057787;28;20021;-68
2023/10/12 06:23:49;;;;;;;32.17;19.35;;;;;;;14.83;100.00;101269.47;5062238;28;20033;-68
2023/10/12 06:26:34;;;;;;;33.70;19.23;;;;;;;14.82;100.00;101268.66;5063418;28;20020;-67
2023/10/12 06:29:00;;;;;;;29.63;17.70;;;;;;;14.82;100.00;101273.16;5069647;28;20016;-67
2023/10/12 06:31:29;;;;;;;30.58;18.63;;;;;;;14.83;100.00;101278.31;5069377;28;20089;-67
2023/10/12 06:33:55;;;;;;;29.00;18.17;;;;;;;14.84;100.00;101268.47;5069483;28;20024;-67
2023/10/12 06:36:36;;;;;;;29.42;18.95;;;;;;;14.83;100.00;101266.81;5064773;28;20032;-67
2023/10/12 06:44:25;;;;;;;32.45;19.27;;;;;;;14.82;100.00;101278.53;5062937;28;20032;-67
2023/10/12 06:46:53;;;;;;;32.25;19.80;;;;;;;14.81;100.00;101290.22;5066993;28;20025;-67
2023/10/12 06:49:23;;;;;;;32.17;18.50;;;;;;;14.80;100.00;101278.72;5064684;28;20021;-68
2023/10/12 06:52:14;;;;;;;28.15;18.42;;;;;;;14.77;100.00;101270.22;5067259;28;20020;-67
2023/10/12 06:59:59;;;;;;;33.28;19.08;;;;;;;14.74;100.00;101278.59;5063844;28;20489;-67
2023/10/12 07:02:27;;;;;;;31.30;19.67;;;;;;;14.82;100.00;101289.22;5065758;28;20573;-67
2023/10/12 07:04:57;;;;;;;34.38;20.75;;;;;;;14.80;100.00;101284.06;5065169;28;20021;-67
2023/10/12 07:07:30;;;;;;;29.95;19.63;;;;;;;14.73;100.00;101283.13;5065458;28;20018;-67
2023/10/12 07:12:41;;;;;;;34.17;19.50;;;;;;;14.83;100.00;101305.06;5065220;28;20040;-67
2023/10/12 07:15:20;;;;;;;33.80;19.88;;;;;;;14.82;100.00;101307.94;5059527;28;20040;-67
2023/10/12 07:17:49;;;;;;;29.23;18.33;;;;;;;14.83;100.00;101325.63;5056625;28;20048;-67
2023/10/12 07:22:56;;;;;;;31.55;19.63;;;;;;;14.82;100.00;101311.44;5060291;28;20397;-67
2023/10/12 07:25:27;;;;;;;30.88;19.58;;;;;;;14.84;100.00;101312.06;5061112;28;20470;-67
2023/10/12 07:28:01;;;;;;;30.60;19.10;;;;;;;14.85;100.00;101320.91;5059095;28;20490;-67
2023/10/12 07:30:33;;;;;;;35.17;19.55;;;;;;;14.85;100.00;101323.59;5064315;28;20029;-67
2023/10/12 07:33:07;;;;;;;33.72;19.38;;;;;;;14.83;100.00;101325.63;5062008;28;20028;-66
2023/10/12 07:35:38;;;;;;;33.58;18.85;;;;;;;14.85;100.00;101329.78;5064359;28;20458;-66
2023/10/12 07:38:12;;;;;;;32.30;19.35;;;;;;;14.87;100.00;101332.25;5064810;28;20519;-67
2023/10/12 07:40:48;;;;;;;31.38;19.25;;;;;;;14.88;100.00;101331.25;5060446;28;20049;-67
2023/10/12 07:43:18;;;;;;;33.53;18.85;;;;;;;14.87;100.00;101337.59;5060346;28;20655;-67
2023/10/12 07:45:48;;;;;;;31.30;18.83;;;;;;;14.91;100.00;101335.38;5066794;28;20063;-66
2023/10/12 07:48:39;;;;;;;33.25;18.10;;;;;;;14.92;100.00;101337.03;5064934;28;20020;-67
2023/10/12 07:51:16;;;;;;;37.58;19.27;;;;;;;14.94;100.00;101337.69;5068884;28;20052;-68
2023/10/12 07:53:43;;;;;;;34.85;18.60;;;;;;;14.96;100.00;101341.00;5066372;28;20494;-66
2023/10/12 07:56:15;;;;;;;33.80;17.77;;;;;;;14.94;100.00;101341.19;5069571;28;20444;-67
2023/10/12 07:58:41;;;;;;;34.85;19.40;;;;;;;14.94;100.00;101341.19;5068913;28;20024;-67
2023/10/12 08:01:38;;;;;;;31.20;18.88;;;;;;;14.95;100.00;101353.53;5067122;28;20024;-67
2023/10/12 08:04:09;;;;;;;37.08;18.05;;;;;;;14.91;100.00;101354.09;5071844;28;20028;-67
2023/10/12 08:09:21;;;;;;;31.13;18.30;;;;;;;14.85;100.00;101339.63;5073505;28;20031;-68
2023/10/12 08:11:46;;;;;;;32.35;18.70;;;;;;;14.87;100.00;101345.63;5065548;28;20025;-69
2023/10/12 08:19:43;;;;;;;33.70;19.38;;;;;;;14.87;100.00;101345.63;5066853;28;20032;-68
2023/10/12 08:22:25;;;;;;;31.15;18.85;;;;;;;14.85;100.00;101350.34;5063665;28;20027;-69
2023/10/12 08:24:53;;;;;;;32.75;19.00;;;;;;;14.86;100.00;101352.00;5063231;28;20020;-69
2023/10/12 08:27:19;;;;;;;33.80;19.63;;;;;;;14.86;100.00;101352.00;5067709;28;20024;-69
2023/10/12 08:32:15;;;;;;;33.83;19.25;;;;;;;14.84;100.00;101357.53;5058645;28;20520;-69
2023/10/12 08:34:42;;;;;;;31.25;18.92;;;;;;;14.86;100.00;101357.34;5068630;28;20414;-68
2023/10/12 08:37:18;;;;;;;32.55;19.73;;;;;;;14.86;100.00;101365.38;5069106;28;20028;-69
2023/10/12 08:39:53;;;;;;;33.97;19.52;;;;;;;14.89;100.00;101365.00;5064040;28;20037;-69
2023/10/12 08:45:09;;;;;;;32.83;19.58;;;;;;;14.90;100.00;101363.97;5068896;28;20106;-69
2023/10/12 08:52:50;;;;;;;35.63;20.08;;;;;;;14.92;100.00;101355.75;5064688;28;20108;-69
2023/10/12 08:55:19;;;;;;;35.13;20.67;;;;;;;14.94;100.00;101356.41;5063203;28;20028;-69
2023/10/12 08:58:13;;;;;;;34.97;20.73;;;;;;;14.93;100.00;101347.56;5070314;28;20025;-69
2023/10/12 09:01:31;;;;;;;35.92;20.27;;;;;;;14.94;100.00;101345.72;5061846;28;20021;-70
2023/10/12 09:03:37;;;;;;;41.72;20.65;;;;;;;14.94;100.00;101351.88;5059673;28;20550;-70
2023/10/12 09:06:07;;;;;;;35.05;21.60;;;;;;;14.96;100.00;101352.53;5072009;28;20024;-69
2023/10/12 09:11:02;;;;;;;39.17;22.33;;;;;;;15.04;100.00;101357.78;5064659;28;20024;-70
2023/10/12 09:13:28;;;;;;;34.78;21.35;;;;;;;15.06;100.00;101357.59;5069482;28;20066;-69
2023/10/12 09:15:59;;;;;;;37.08;21.27;;;;;;;15.12;100.00;101357.69;5066716;28;20406;-69
2023/10/12 09:18:29;;;;;;;39.63;22.25;;;;;;;15.14;100.00;101371.69;5065102;28;20016;-69
2023/10/12 09:26:30;;;;;;;34.55;21.42;;;;;;;15.24;100.00;101370.56;5036678;28;20037;-69
2023/10/12 09:36:53;;;;;;;40.97;22.17;;;;;;;15.33;100.00;101342.69;5058902;28;20082;-68
2023/10/12 09:39:24;;;;;;;32.50;21.98;;;;;;;15.38;100.00;101350.97;5058143;28;20031;-68
2023/10/12 09:41:58;;;;;;;39.80;22.95;;;;;;;15.38;100.00;101340.28;5065645;28;20221;-69
2023/10/12 09:44:34;;;;;;;37.25;23.73;;;;;;;15.45;100.00;101347.34;5071168;28;20054;-68
2023/10/12 09:47:08;;;;;;;36.03;23.42;;;;;;;15.51;100.00;101345.75;5068428;28;20035;-68
2023/10/12 09:49:37;;;;;;;41.88;23.42;;;;;;;15.57;100.00;101339.63;5065121;28;20073;-68
2023/10/12 09:52:13;;;;;;;40.50;24.70;;;;;;;15.58;100.00;101341.31;5054422;28;20402;-68
2023/10/12 09:54:45;;;;;;;38.58;23.27;;;;;;;15.64;100.00;101340.56;5062611;28;20025;-68
2023/10/12 09:57:50;;;;;;;35.58;23.55;;;;;;;15.66;100.00;101329.66;5066416;28;20020;-68
2023/10/12 10:02:55;;;;;;;37.35;22.48;;;;;;;15.67;100.00;101313.41;5056887;28;20036;-68
2023/10/12 10:05:39;;;;;;;32.55;21.65;;;;;;;15.62;100.00;101315.00;5060934;28;20083;-68
2023/10/12 10:08:06;;;;;;;34.60;21.35;;;;;;;15.62;100.00;101331.06;5062822;28;20020;-68
2023/10/12 10:10:36;;;;;;;32.90;21.17;;;;;;;15.63;100.00;101330.06;5061439;28;20016;-68
2023/10/12 10:13:10;;;;;;;31.35;20.67;;;;;;;15.63;100.00;101327.38;5058452;28;20120;-68
2023/10/12 10:15:55;;;;;;;32.05;20.98;;;;;;;15.57;100.00;101323.56;5066041;28;20031;-67
2023/10/12 10:18:25;;;;;;;32.05;19.27;;;;;;;15.55;100.00;101317.56;5059255;28;20020;-68
2023/10/12 10:20:56;;;;;;;33.10;19.67;;;;;;;15.55;100.00;101325.59;5064157;28;20107;-68
2023/10/12 10:23:22;;;;;;;31.67;19.52;;;;;;;15.57;100.00;101331.59;5067588;28;20501;-68
2023/10/12 10:25:56;;;;;;;29.27;19.08;;;;;;;15.61;100.00;101329.38;5057887;28;20650;-67
2023/10/12 10:28:35;;;;;;;30.40;19.75;;;;;;;15.60;100.00;101325.88;5064050;28;20032;-68
2023/10/12 10:31:01;;;;;;;30.42;18.40;;;;;;;15.61;100.00;101310.66;5063898;28;20055;-68
2023/10/12 10:33:28;;;;;;;30.50;18.45;;;;;;;15.64;100.00;101313.78;5060623;28;20027;-68
2023/10/12 10:36:02;;;;;;;31.02;18.85;;;;;;;15.68;100.00;101312.38;5061633;28;20077;-67
2023/10/12 10:38:32;;;;;;;30.75;18.58;;;;;;;15.68;100.00;101304.34;5064784;28;20028;-67
2023/10/12 10:41:08;;;;;;;34.65;18.83;;;;;;;15.75;100.00;101310.59;5068238;28;20087;-67
2023/10/12 10:43:37;;;;;;;28.95;17.50;;;;;;;15.78;100.00;101312.06;5057504;28;20051;-68
2023/10/12 10:46:06;;;;;;;;;;;;;;;15.85;100.00;101304.88;5063135;28;20029;-67
2023/10/12 10:48:34;;;;;;;25.95;16.10;;;;;;;15.83;100.00;101300.75;5056527;28;19912;-66
2023/10/12 10:51:02;;;;;;;24.65;16.35;;;;;;;15.82;100.00;101304.44;5063340;28;20082;-67
2023/10/12 10:53:31;;;;;;;22.95;15.68;;;;;;;15.84;100.00;101305.09;5063427;28;20040;-66
2023/10/12 10:55:57;;;;;;;26.60;16.10;;;;;;;15.91;100.00;101303.31;5056802;28;20029;-67
2023/10/12 10:58:24;;;;;;;24.02;15.77;;;;;;;15.91;100.00;101300.63;5060776;28;20028;-66
2023/10/12 11:00:56;;;;;;;24.92;16.15;;;;;;;15.94;100.00;101297.56;5062880;28;20383;-67
2023/10/12 11:03:22;;;;;;;24.90;16.25;;;;;;;15.99;100.00;101303.16;5067339;28;20043;-67
2023/10/12 11:05:48;;;;;;;30.45;16.63;;;;;;;16.00;100.00;101300.28;5059539;28;20029;-69
2023/10/12 11:08:26;;;;;;;25.20;16.85;;;;;;;16.05;100.00;101303.19;5060506;28;20108;-69
2023/10/12 11:13:33;;;;;;;30.13;17.85;;;;;;;16.14;100.00;101297.69;5064869;28;20029;-67
2023/10/12 11:18:44;;;;;;;28.95;18.02;;;;;;;16.20;100.00;101287.03;5062291;28;20090;-67
2023/10/12 11:21:11;;;;;;;31.90;18.05;;;;;;;16.22;100.00;101284.16;5058138;28;20037;-67
2023/10/12 11:23:36;;;;;;;25.42;16.05;;;;;;;16.22;100.00;101293.03;5060268;28;20020;-67
2023/10/12 11:26:05;;;;;;;24.98;15.60;;;;;;;16.23;100.00;101283.97;5063636;28;20021;-67
2023/10/12 11:28:30;;;;;;;23.90;15.47;;;;;;;16.22;100.00;101279.63;5066531;28;20023;-67
2023/10/12 11:31:01;;;;;;;26.67;15.45;;;;;;;16.27;100.00;101287.91;5060910;28;20290;-67
2023/10/12 11:33:28;;;;;;;26.65;16.02;;;;;;;16.29;100.00;101282.34;5067508;28;20020;-67
2023/10/12 11:36:00;;;;;;;26.80;15.10;;;;;;;16.32;100.00;101273.91;5056740;28;20044;-66
2023/10/12 11:38:26;;;;;;;22.27;15.63;;;;;;;16.35;100.00;101270.81;5069140;28;20505;-66
2023/10/12 11:40:55;;;;;;;27.35;15.73;;;;;;;16.37;100.00;101266.91;5061734;28;20600;-67
2023/10/12 11:43:49;;;;;;;28.63;15.50;;;;;;;16.40;100.00;101266.50;5064830;28;20036;-67
2023/10/12 11:46:15;;;;;;;24.20;15.35;;;;;;;16.39;100.00;101266.72;5070246;28;20040;-66
2023/10/12 11:48:40;;;;;;;29.13;14.98;;;;;;;16.39;100.00;101270.22;5062859;28;20544;-67
2023/10/12 11:51:12;;;;;;;22.20;15.90;;;;;;;16.45;100.00;101273.97;5066486;28;20048;-66
2023/10/12 11:53:39;;;;;;;26.65;15.85;;;;;;;16.47;100.00;101277.25;5062527;28;20024;-67
2023/10/12 11:56:14;;;;;;;24.30;15.48;;;;;;;16.48;100.00;101268.22;5065639;28;20433;-66
2023/10/12 11:58:55;;;;;;;23.88;15.20;;;;;;;16.50;100.00;101265.34;5064185;28;20028;-67
2023/10/12 12:01:22;;;;;;;22.67;15.27;;;;;;;16.52;100.00;101265.97;5067175;28;20036;-66
2023/10/12 12:03:48;;;;;;;26.02;14.35;;;;;;;16.53;100.00;101262.25;5053993;28;20028;-66
2023/10/12 12:06:21;;;;;;;29.20;14.93;;;;;;;16.56;100.00;101264.53;5064321;28;20401;-65
2023/10/12 12:08:47;;;;;;;23.08;15.20;;;;;;;16.58;100.00;101276.72;5070822;28;20028;-66
2023/10/12 12:11:15;;;;;;;31.63;15.10;;;;;;;16.57;100.00;101271.56;5065348;28;20029;-66
2023/10/12 12:13:47;;;;;;;22.05;13.93;;;;;;;16.56;100.00;101273.41;5068993;28;20051;-66
2023/10/12 12:16:15;;;;;;;23.95;13.85;;;;;;;16.56;100.00;101265.38;5065076;28;20025;-66
2023/10/12 12:18:40;;;;;;;24.25;13.80;;;;;;;16.55;100.00;101257.53;5067653;28;20067;-66
2023/10/12 12:21:15;;;;;;;22.45;14.20;;;;;;;16.57;100.00;101252.78;5067772;28;20055;-66
2023/10/12 12:23:40;;;;;;;20.80;12.98;;;;;;;16.56;100.00;101243.09;5063522;28;20401;-66
2023/10/12 12:26:14;;;;;;;20.95;13.00;;;;;;;16.54;100.00;101231.75;5052749;28;20474;-66
2023/10/12 12:28:49;;;;;;;18.83;12.25;;;;;;;16.55;100.00;101230.72;5058585;28;20029;-66
2023/10/12 12:31:15;;;;;;;22.73;13.10;;;;;;;16.53;100.00;101235.44;5058044;28;20025;-66
2023/10/12 12:33:44;;;;;;;23.83;12.10;;;;;;;16.52;100.00;101237.31;5061018;28;20389;-66
2023/10/12 12:36:22;;;;;;;19.17;12.38;;;;;;;16.50;100.00;101239.38;5060959;28;20028;-66
2023/10/12 12:38:52;;;;;;;20.23;12.32;;;;;;;16.51;100.00;101258.94;5062264;28;20093;-66
2023/10/12 12:41:23;;;;;;;21.60;12.07;;;;;;;16.50;100.00;101258.13;5065245;28;20016;-67
2023/10/12 12:43:49;;;;;;;18.70;11.68;;;;;;;16.47;100.00;101255.81;5068893;28;20040;-67
2023/10/12 12:46:16;;;;;;;18.30;11.85;;;;;;;16.43;100.00;101247.34;5068953;28;20135;-67
2023/10/12 12:48:45;;;;;;;23.08;12.50;;;;;;;16.36;100.00;101233.09;5061642;28;20386;-67
2023/10/12 12:51:15;;;;;;;19.02;11.93;;;;;;;16.40;100.00;101245.06;5066714;28;20021;-67
2023/10/12 12:53:42;;;;;;;20.33;12.48;;;;;;;16.38;100.00;101231.03;5065288;28;20086;-67
2023/10/12 12:56:10;;;;;;;19.60;12.30;;;;;;;16.37;100.00;101225.88;5065567;28;20032;-67
2023/10/12 12:58:36;;;;;;;26.55;12.55;;;;;;;16.37;100.00;101215.97;5062917;28;20033;-67
2023/10/12 13:01:01;;;;;;;22.00;12.23;;;;;;;16.39;100.00;101221.97;5064971;28;20019;-67
2023/10/12 13:03:28;;;;;;;19.88;12.18;;;;;;;16.39;100.00;101227.34;5069574;28;20016;-67
2023/10/12 13:05:54;;;;;;;20.58;12.63;;;;;;;16.42;100.00;101229.63;5070132;28;20103;-67